createdAt,value
2023-05-19T00:01:18.017Z,16.10
2023-05-19T00:03:57.731Z,16.10
2023-05-19T00:06:26.747Z,16.00
2023-05-19T00:08:58.692Z,16.00
2023-05-19T00:11:26.917Z,16.00
2023-05-19T00:13:55.227Z,16.00
2023-05-19T00:16:23.112Z,16.70
2023-05-19T00:18:49.999Z,15.90
2023-05-19T00:21:16.794Z,15.90
2023-05-19T00:23:43.747Z,15.90
2023-05-19T00:26:11.109Z,16.40
2023-05-19T00:28:37.782Z,17.60
2023-05-19T00:31:07.671Z,15.80
2023-05-19T00:33:34.472Z,15.70
2023-05-19T00:36:05.785Z,15.70
2023-05-19T00:38:34.061Z,15.60
2023-05-19T00:41:01.392Z,15.60
2023-05-19T00:43:28.172Z,15.60
2023-05-19T00:45:54.924Z,15.60
2023-05-19T00:48:21.960Z,15.60
2023-05-19T00:50:49.522Z,15.50
2023-05-19T00:53:18.068Z,15.50
2023-05-19T00:55:45.390Z,15.50
2023-05-19T00:58:12.488Z,15.80
2023-05-19T01:00:39.781Z,16.20
2023-05-19T01:03:13.044Z,15.40
2023-05-19T01:05:53.614Z,15.40
2023-05-19T01:08:20.744Z,15.30
2023-05-19T01:10:47.488Z,15.30
2023-05-19T01:13:14.600Z,15.30
2023-05-19T01:16:01.857Z,15.70
2023-05-19T01:18:41.767Z,15.30
2023-05-19T01:22:06.817Z,15.20
2023-05-19T01:25:00.761Z,15.20
2023-05-19T01:28:01.352Z,15.10
2023-05-19T01:30:35.686Z,15.10
2023-05-19T01:33:06.651Z,15.10
2023-05-19T01:35:36.719Z,15.10
2023-05-19T01:38:05.365Z,15.10
2023-05-19T01:40:33.385Z,15.30
2023-05-19T01:43:01.634Z,15.10
2023-05-19T01:45:29.777Z,15.00
2023-05-19T01:47:58.887Z,15.10
2023-05-19T01:50:26.049Z,15.00
2023-05-19T01:52:52.908Z,15.00
2023-05-19T01:55:21.219Z,15.70
2023-05-19T01:58:31.755Z,15.00
2023-05-19T02:01:03.213Z,15.00
2023-05-19T02:03:41.319Z,14.90
2023-05-19T02:06:29.977Z,14.90
2023-05-19T02:09:08.646Z,15.00
2023-05-19T02:11:42.255Z,14.90
2023-05-19T02:14:21.511Z,14.70
2023-05-19T02:16:48.939Z,16.40
2023-05-19T02:19:26.929Z,14.80
2023-05-19T02:21:53.746Z,14.80
2023-05-19T02:24:22.744Z,14.80
2023-05-19T02:26:53.684Z,14.80
2023-05-19T02:29:21.176Z,14.80
2023-05-19T02:31:48.770Z,14.80
2023-05-19T02:34:16.835Z,14.70
2023-05-19T02:36:44.461Z,14.70
2023-05-19T02:39:12.187Z,14.70
2023-05-19T02:41:39.497Z,14.70
2023-05-19T02:44:06.358Z,14.70
2023-05-19T02:46:33.335Z,14.60
2023-05-19T02:49:00.310Z,14.60
2023-05-19T02:51:27.058Z,14.60
2023-05-19T02:53:53.792Z,14.60
2023-05-19T02:56:21.721Z,16.60
2023-05-19T02:58:48.501Z,16.80
2023-05-19T03:01:15.688Z,14.60
2023-05-19T03:03:42.501Z,14.60
2023-05-19T03:06:09.318Z,14.50
2023-05-19T03:08:36.375Z,14.60
2023-05-19T03:11:03.532Z,14.50
2023-05-19T03:13:30.480Z,14.50
2023-05-19T03:15:59.162Z,14.50
2023-05-19T03:18:26.823Z,14.50
2023-05-19T03:20:54.107Z,14.50
2023-05-19T03:23:22.228Z,14.50
2023-05-19T03:25:48.938Z,14.50
2023-05-19T03:28:15.746Z,14.50
2023-05-19T03:33:09.927Z,14.40
2023-05-19T03:35:36.768Z,14.30
2023-05-19T03:38:03.485Z,14.10
2023-05-19T03:40:30.365Z,14.40
2023-05-19T03:42:57.197Z,14.40
2023-05-19T03:45:23.904Z,14.40
2023-05-19T03:47:50.670Z,14.30
2023-05-19T03:50:17.518Z,14.30
2023-05-19T03:52:48.098Z,14.40
2023-05-19T03:55:15.091Z,14.30
2023-05-19T03:57:43.351Z,14.30
2023-05-19T04:00:11.379Z,15.10
2023-05-19T04:02:38.287Z,14.30
2023-05-19T04:05:05.333Z,14.80
2023-05-19T04:07:32.171Z,14.20
2023-05-19T04:09:58.972Z,14.20
2023-05-19T04:12:25.780Z,14.20
2023-05-19T04:14:52.534Z,14.20
2023-05-19T04:17:19.241Z,14.10
2023-05-19T04:19:45.958Z,15.10
2023-05-19T04:22:12.690Z,14.90
2023-05-19T04:24:39.387Z,14.10
2023-05-19T04:27:15.051Z,14.10
2023-05-19T04:29:42.498Z,14.10
2023-05-19T04:32:10.911Z,14.00
2023-05-19T04:34:41.121Z,14.00
2023-05-19T04:37:10.416Z,14.00
2023-05-19T04:39:43.105Z,14.00
2023-05-19T04:42:11.772Z,14.00
2023-05-19T04:44:40.251Z,13.90
2023-05-19T04:47:08.852Z,13.90
2023-05-19T04:49:39.092Z,13.90
2023-05-19T04:52:10.812Z,13.90
2023-05-19T04:54:38.290Z,13.90
2023-05-19T04:57:05.629Z,13.80
2023-05-19T04:59:32.469Z,13.90
2023-05-19T05:01:59.223Z,13.80
2023-05-19T05:04:26.003Z,13.80
2023-05-19T05:06:52.700Z,13.80
2023-05-19T05:09:20.256Z,13.80
2023-05-19T05:11:47.937Z,13.80
2023-05-19T05:14:15.666Z,13.70
2023-05-19T05:16:52.915Z,13.80
2023-05-19T05:19:22.511Z,14.30
2023-05-19T05:21:49.939Z,13.70
2023-05-19T05:24:18.619Z,13.70
2023-05-19T05:26:45.735Z,13.80
2023-05-19T05:29:12.476Z,13.80
2023-05-19T05:31:39.191Z,13.80
2023-05-19T05:34:05.951Z,13.80
2023-05-19T05:36:34.915Z,13.80
2023-05-19T05:39:02.478Z,13.80
2023-05-19T05:41:35.415Z,13.80
2023-05-19T05:44:02.608Z,13.80
2023-05-19T05:46:29.921Z,14.60
2023-05-19T05:48:57.134Z,13.90
2023-05-19T05:51:24.543Z,13.90
2023-05-19T05:53:53.218Z,13.90
2023-05-19T05:56:20.852Z,14.00
2023-05-19T05:58:47.881Z,14.00
2023-05-19T06:01:16.871Z,15.00
2023-05-19T06:03:45.020Z,14.00
2023-05-19T06:06:12.508Z,14.00
2023-05-19T06:08:39.645Z,14.10
2023-05-19T06:11:08.892Z,14.20
2023-05-19T06:13:36.639Z,14.20
2023-05-19T06:16:03.827Z,14.10
2023-05-19T06:20:58.162Z,14.30
2023-05-19T06:23:26.987Z,14.40
2023-05-19T06:25:54.511Z,14.30
2023-05-19T06:28:21.751Z,14.40
2023-05-19T06:33:16.921Z,14.40
2023-05-19T06:35:44.114Z,14.50
2023-05-19T06:38:10.960Z,14.60
2023-05-19T06:40:37.673Z,14.60
2023-05-19T06:43:04.927Z,14.90
2023-05-19T06:45:31.758Z,14.70
2023-05-19T06:47:58.636Z,14.70
2023-05-19T06:50:25.627Z,15.60
2023-05-19T06:52:52.436Z,14.90
2023-05-19T06:55:19.446Z,15.30
2023-05-19T06:57:46.153Z,15.10
2023-05-19T07:00:15.267Z,15.20
2023-05-19T07:02:44.707Z,15.20
2023-05-19T07:05:14.305Z,15.30
2023-05-19T07:07:41.782Z,15.40
2023-05-19T07:10:09.394Z,15.40
2023-05-19T07:12:36.173Z,15.50
2023-05-19T07:15:03.056Z,15.50
2023-05-19T07:17:29.776Z,15.70
2023-05-19T07:19:56.563Z,15.70
2023-05-19T07:22:24.199Z,15.80
2023-05-19T07:24:51.211Z,15.80
2023-05-19T07:27:18.115Z,15.90
2023-05-19T07:29:44.897Z,16.00
2023-05-19T07:32:11.752Z,16.10
2023-05-19T07:34:38.512Z,16.10
2023-05-19T07:37:05.591Z,16.20
2023-05-19T07:39:33.764Z,16.20
2023-05-19T07:42:00.492Z,16.30
2023-05-19T07:44:27.266Z,16.30
2023-05-19T07:46:54.652Z,18.10
2023-05-19T07:49:22.053Z,16.50
2023-05-19T07:51:48.934Z,16.60
2023-05-19T07:54:15.858Z,16.90
2023-05-19T07:56:42.676Z,16.60
2023-05-19T07:59:09.720Z,16.70
2023-05-19T08:04:04.010Z,16.80
2023-05-19T08:06:31.766Z,16.80
2023-05-19T08:08:58.629Z,16.90
2023-05-19T08:11:25.770Z,17.00
2023-05-19T08:13:52.582Z,17.20
2023-05-19T08:16:19.321Z,17.00
2023-05-19T08:18:46.133Z,17.10
2023-05-19T08:21:12.892Z,18.60
2023-05-19T08:23:39.597Z,17.10
2023-05-19T08:26:06.828Z,17.20
2023-05-19T08:28:33.474Z,17.20
2023-05-19T08:31:00.391Z,17.30
2023-05-19T08:33:27.113Z,17.30
2023-05-19T08:35:55.382Z,17.30
2023-05-19T08:38:22.204Z,17.30
2023-05-19T08:40:49.064Z,17.30
2023-05-19T08:43:15.972Z,17.40
2023-05-19T08:45:46.564Z,17.50
2023-05-19T08:48:14.169Z,17.40
2023-05-19T08:50:42.599Z,17.50
2023-05-19T08:53:33.062Z,17.50
2023-05-19T08:56:12.377Z,17.50
2023-05-19T08:58:41.307Z,17.50
2023-05-19T09:01:08.339Z,17.60
2023-05-19T09:03:39.279Z,17.60
2023-05-19T09:06:08.561Z,17.60
2023-05-19T09:08:36.822Z,17.60
2023-05-19T09:11:04.406Z,17.60
2023-05-19T09:13:31.881Z,18.80
2023-05-19T09:15:58.934Z,17.60
2023-05-19T09:18:26.811Z,17.70
2023-05-19T09:21:02.994Z,17.70
2023-05-19T09:23:34.746Z,17.70
2023-05-19T09:26:07.618Z,17.70
2023-05-19T09:28:36.500Z,17.70
2023-05-19T09:31:08.331Z,17.80
2023-05-19T09:33:37.501Z,17.70
2023-05-19T09:36:08.626Z,17.80
2023-05-19T09:38:36.469Z,17.80
2023-05-19T09:41:05.581Z,15.70
2023-05-19T09:43:34.230Z,17.80
2023-05-19T09:46:08.753Z,17.90
2023-05-19T09:48:36.583Z,17.90
2023-05-19T09:51:06.250Z,17.90
2023-05-19T09:53:34.559Z,17.90
2023-05-19T09:58:35.059Z,18.00
2023-05-19T10:01:02.380Z,18.00
2023-05-19T10:03:30.431Z,18.00
2023-05-19T10:05:57.503Z,18.00
2023-05-19T10:08:26.565Z,18.00
2023-05-19T10:11:00.871Z,18.10
2023-05-19T10:13:29.270Z,18.10
2023-05-19T10:15:58.751Z,19.10
2023-05-19T10:18:27.908Z,18.20
2023-05-19T10:20:55.147Z,18.30
2023-05-19T10:23:22.465Z,18.10
2023-05-19T10:25:50.878Z,18.20
2023-05-19T10:28:20.532Z,18.30
2023-05-19T10:30:49.870Z,18.30
2023-05-19T10:33:18.173Z,18.40
2023-05-19T10:36:16.252Z,18.40
2023-05-19T10:38:53.398Z,18.40
2023-05-19T10:41:41.469Z,18.40
2023-05-19T10:44:33.931Z,18.50
2023-05-19T10:47:00.983Z,18.50
2023-05-19T10:49:27.857Z,18.50
2023-05-19T10:51:58.109Z,18.60
2023-05-19T10:54:48.060Z,18.60
2023-05-19T10:57:20.301Z,18.60
2023-05-19T10:59:47.283Z,18.60
2023-05-19T11:02:41.208Z,18.70
2023-05-19T11:05:18.154Z,18.70
2023-05-19T11:08:20.320Z,18.70
2023-05-19T11:10:47.087Z,18.70
2023-05-19T11:13:22.466Z,18.70
2023-05-19T11:15:50.051Z,18.70
2023-05-19T11:18:16.880Z,18.80
2023-05-19T11:20:56.105Z,18.80
2023-05-19T11:23:33.276Z,18.80
2023-05-19T11:26:13.653Z,18.80
2023-05-19T11:28:48.816Z,18.90
2023-05-19T11:31:23.057Z,18.80
2023-05-19T11:33:53.665Z,18.90
2023-05-19T11:36:21.918Z,18.90
2023-05-19T11:38:51.608Z,18.90
2023-05-19T11:41:19.517Z,18.90
2023-05-19T11:43:50.578Z,19.00
2023-05-19T11:46:18.286Z,19.00
2023-05-19T11:48:48.373Z,19.00
2023-05-19T11:51:16.429Z,19.00
2023-05-19T11:53:44.674Z,19.10
2023-05-19T11:56:12.003Z,19.10
2023-05-19T11:58:38.735Z,19.10
2023-05-19T12:01:06.241Z,19.20
2023-05-19T12:03:33.304Z,19.10
2023-05-19T12:06:00.308Z,19.20
2023-05-19T12:08:27.511Z,19.20
2023-05-19T12:10:54.283Z,19.20
2023-05-19T12:13:22.806Z,19.20
2023-05-19T12:15:52.549Z,19.20
2023-05-19T12:18:21.999Z,19.20
2023-05-19T12:20:49.159Z,19.20
2023-05-19T12:23:17.016Z,19.20
2023-05-19T12:25:44.580Z,19.20
2023-05-19T12:28:12.646Z,19.30
2023-05-19T12:30:39.524Z,19.30
2023-05-19T12:33:08.665Z,19.20
2023-05-19T12:35:37.650Z,19.30
2023-05-19T12:38:05.520Z,19.30
2023-05-19T12:40:35.511Z,19.20
2023-05-19T12:43:03.384Z,19.30
2023-05-19T12:45:41.130Z,19.30
2023-05-19T12:48:18.277Z,19.40
2023-05-19T12:50:46.517Z,19.40
2023-05-19T12:53:14.756Z,19.40
2023-05-19T12:55:45.792Z,19.40
2023-05-19T12:58:13.140Z,19.40
2023-05-19T13:00:45.449Z,19.40
2023-05-19T13:03:17.509Z,19.40
2023-05-19T13:05:48.992Z,19.40
2023-05-19T13:08:18.624Z,19.40
2023-05-19T13:10:46.348Z,19.40
2023-05-19T13:13:13.624Z,19.40
2023-05-19T13:15:44.908Z,19.40
2023-05-19T13:18:12.842Z,19.30
2023-05-19T13:20:41.214Z,19.40
2023-05-19T13:23:10.080Z,19.40
2023-05-19T13:25:37.035Z,19.40
2023-05-19T13:28:05.784Z,19.40
2023-05-19T13:30:33.960Z,19.30
2023-05-19T13:33:01.294Z,19.30
2023-05-19T13:35:28.131Z,19.40
2023-05-19T13:37:54.894Z,19.30
2023-05-19T13:40:23.867Z,19.30
2023-05-19T13:42:50.722Z,19.30
2023-05-19T13:45:18.367Z,19.20
2023-05-19T13:47:45.197Z,19.30
2023-05-19T13:50:13.016Z,19.30
2023-05-19T13:52:39.685Z,19.20
2023-05-19T13:55:07.612Z,19.30
2023-05-19T13:57:34.412Z,19.30
2023-05-19T14:00:03.860Z,19.30
2023-05-19T14:02:31.227Z,19.40
2023-05-19T14:04:58.122Z,19.20
2023-05-19T14:07:25.614Z,19.30
2023-05-19T14:09:52.745Z,19.20
2023-05-19T14:12:23.221Z,19.20
2023-05-19T14:14:52.291Z,19.50
2023-05-19T14:17:19.005Z,19.20
2023-05-19T14:19:45.744Z,19.20
2023-05-19T14:22:13.334Z,19.20
2023-05-19T14:24:40.069Z,19.20
2023-05-19T14:27:06.738Z,19.20
2023-05-19T14:29:33.913Z,19.20
2023-05-19T14:32:00.739Z,19.20
2023-05-19T14:34:27.525Z,19.20
2023-05-19T14:36:54.189Z,19.20
2023-05-19T14:39:21.011Z,19.20
2023-05-19T14:41:49.377Z,19.20
2023-05-19T14:44:16.138Z,19.20
2023-05-19T14:46:43.188Z,19.20
2023-05-19T14:49:10.416Z,19.20
2023-05-19T14:51:37.808Z,19.20
2023-05-19T14:54:08.264Z,19.30
2023-05-19T14:56:35.619Z,19.30
2023-05-19T14:59:05.139Z,19.30
2023-05-19T15:01:32.273Z,19.30
2023-05-19T15:04:03.660Z,19.30
2023-05-19T15:06:30.911Z,19.30
2023-05-19T15:08:58.168Z,19.30
2023-05-19T15:11:24.864Z,19.30
2023-05-19T15:13:52.265Z,19.30
2023-05-19T15:16:19.370Z,19.40
2023-05-19T15:18:46.593Z,19.30
2023-05-19T15:21:13.712Z,19.30
2023-05-19T15:23:40.861Z,19.30
2023-05-19T15:26:07.902Z,19.30
2023-05-19T15:28:35.015Z,19.40
2023-05-19T15:31:02.220Z,19.40
2023-05-19T15:33:29.585Z,19.40
2023-05-19T15:35:57.659Z,19.30
2023-05-19T15:38:24.744Z,19.40
2023-05-19T15:40:52.348Z,19.60
2023-05-19T15:43:21.807Z,19.40
2023-05-19T15:45:48.804Z,19.40
2023-05-19T15:48:15.599Z,19.30
2023-05-19T15:50:42.746Z,19.40
2023-05-19T15:53:10.787Z,19.40
2023-05-19T15:55:38.131Z,19.40
2023-05-19T15:58:05.283Z,19.40
2023-05-19T16:00:32.158Z,19.50
2023-05-19T16:02:59.289Z,19.50
2023-05-19T16:05:26.936Z,19.50
2023-05-19T16:07:54.059Z,19.50
2023-05-19T16:10:24.065Z,19.50
2023-05-19T16:12:52.526Z,19.50
2023-05-19T16:15:20.382Z,19.50
2023-05-19T16:17:48.059Z,19.50
2023-05-19T16:20:15.774Z,19.50
2023-05-19T16:22:43.184Z,19.50
2023-05-19T16:25:13.634Z,19.50
2023-05-19T16:27:41.336Z,19.60
2023-05-19T16:30:09.013Z,19.60
2023-05-19T16:32:36.764Z,19.60
2023-05-19T16:35:05.815Z,19.60
2023-05-19T16:37:33.662Z,19.60
2023-05-19T16:40:00.649Z,19.60
2023-05-19T16:42:28.502Z,19.70
2023-05-19T16:44:55.576Z,19.60
2023-05-19T16:47:22.252Z,19.70
2023-05-19T16:49:48.972Z,19.50
2023-05-19T16:52:15.677Z,19.70
2023-05-19T16:54:42.492Z,19.70
2023-05-19T16:57:14.714Z,19.70
2023-05-19T16:59:41.861Z,19.70
2023-05-19T17:02:08.953Z,19.70
2023-05-19T17:04:36.379Z,19.80
2023-05-19T17:07:03.978Z,19.70
2023-05-19T17:09:32.008Z,19.80
2023-05-19T17:11:59.308Z,19.80
2023-05-19T17:14:26.506Z,19.80
2023-05-19T17:16:53.819Z,19.80
2023-05-19T17:19:20.937Z,19.80
2023-05-19T17:21:47.943Z,19.80
2023-05-19T17:24:15.004Z,19.80
2023-05-19T17:26:42.250Z,19.80
2023-05-19T17:29:09.587Z,19.90
2023-05-19T17:31:36.921Z,19.90
2023-05-19T17:34:03.612Z,19.80
2023-05-19T17:36:30.959Z,19.80
2023-05-19T17:38:58.324Z,19.80
2023-05-19T17:41:25.498Z,19.80
2023-05-19T17:43:53.765Z,19.80
2023-05-19T17:46:21.087Z,19.80
2023-05-19T17:48:48.220Z,19.80
2023-05-19T17:51:15.580Z,19.80
2023-05-19T17:53:43.088Z,19.80
2023-05-19T17:56:12.434Z,19.80
2023-05-19T17:58:41.561Z,19.80
2023-05-19T18:01:09.280Z,19.80
2023-05-19T18:03:36.803Z,19.70
2023-05-19T18:06:04.033Z,19.70
2023-05-19T18:08:31.970Z,19.70
2023-05-19T18:10:59.466Z,19.70
2023-05-19T18:13:26.448Z,19.70
2023-05-19T18:15:54.006Z,19.60
2023-05-19T18:18:20.816Z,19.60
2023-05-19T18:20:48.421Z,19.60
2023-05-19T18:23:15.745Z,19.60
2023-05-19T18:25:50.704Z,19.50
2023-05-19T18:28:17.813Z,19.50
2023-05-19T18:30:45.106Z,19.50
2023-05-19T18:33:12.519Z,19.50
2023-05-19T18:35:39.609Z,19.50
2023-05-19T18:38:07.858Z,19.50
2023-05-19T18:40:34.826Z,19.40
2023-05-19T18:43:01.722Z,19.20
2023-05-19T18:45:28.452Z,19.30
2023-05-19T18:47:55.347Z,19.30
2023-05-19T18:50:22.552Z,19.20
2023-05-19T18:52:49.263Z,19.20
2023-05-19T18:55:16.052Z,19.10
2023-05-19T18:57:42.852Z,19.00
2023-05-19T19:00:10.145Z,18.90
2023-05-19T19:02:37.060Z,18.90
2023-05-19T19:05:04.969Z,18.90
2023-05-19T19:07:31.886Z,18.70
2023-05-19T19:09:59.915Z,18.70
2023-05-19T19:14:54.675Z,18.60
2023-05-19T19:22:19.467Z,18.20
2023-05-19T19:24:46.803Z,18.10
2023-05-19T19:27:16.756Z,18.10
2023-05-19T19:29:44.224Z,18.10
2023-05-19T19:32:11.655Z,18.10
2023-05-19T19:34:38.752Z,18.10
2023-05-19T19:37:06.316Z,18.00
2023-05-19T19:39:33.853Z,18.00
2023-05-19T19:42:01.451Z,18.00
2023-05-19T19:44:29.041Z,18.00
2023-05-19T19:46:56.314Z,17.90
2023-05-19T19:49:23.407Z,17.90
2023-05-19T19:51:50.813Z,17.90
2023-05-19T19:54:20.131Z,17.90
2023-05-19T19:56:47.610Z,17.90
2023-05-19T19:59:14.574Z,17.90
2023-05-19T20:02:01.372Z,17.80
2023-05-19T20:04:28.371Z,17.80
2023-05-19T20:06:56.371Z,17.80
2023-05-19T20:09:24.841Z,17.70
2023-05-19T20:11:52.183Z,17.70
2023-05-19T20:14:19.463Z,17.70
2023-05-19T20:16:47.202Z,17.70
2023-05-19T20:19:14.612Z,17.70
2023-05-19T20:21:45.576Z,17.60
2023-05-19T20:24:15.801Z,17.60
2023-05-19T20:26:43.606Z,17.60
2023-05-19T20:29:20.456Z,17.60
2023-05-19T20:31:47.894Z,17.50
2023-05-19T20:34:15.452Z,17.50
2023-05-19T20:36:43.295Z,17.50
2023-05-19T20:39:10.499Z,17.50
2023-05-19T20:41:38.298Z,17.50
2023-05-19T20:44:06.607Z,17.50
2023-05-19T20:46:34.014Z,17.40
2023-05-19T20:49:04.561Z,17.40
2023-05-19T20:51:33.185Z,17.30
2023-05-19T20:54:00.790Z,17.30
2023-05-19T20:56:28.392Z,17.30
2023-05-19T20:58:56.479Z,17.30
2023-05-19T21:01:25.720Z,17.30
2023-05-19T21:03:53.228Z,17.30
2023-05-19T21:06:20.875Z,17.20
2023-05-19T21:08:48.892Z,17.20
2023-05-19T21:11:16.537Z,17.20
2023-05-19T21:13:46.409Z,17.20
2023-05-19T21:16:17.598Z,17.20
2023-05-19T21:18:44.790Z,17.20
2023-05-19T21:21:13.197Z,17.10
2023-05-19T21:23:42.218Z,17.10
2023-05-19T21:26:10.195Z,17.10
2023-05-19T21:28:37.864Z,17.10
2023-05-19T21:31:06.150Z,17.10
2023-05-19T21:33:33.485Z,17.10
2023-05-19T21:36:01.476Z,17.10
2023-05-19T21:38:28.852Z,17.10
2023-05-19T21:40:55.983Z,17.10
2023-05-19T21:43:40.584Z,17.00
2023-05-19T21:46:23.915Z,17.00
2023-05-19T21:49:06.345Z,17.00
2023-05-19T21:51:54.025Z,17.00
2023-05-19T21:54:30.654Z,17.00
2023-05-19T21:57:12.745Z,17.00
2023-05-19T21:59:47.344Z,17.00
2023-05-19T22:02:27.194Z,16.90
2023-05-19T22:04:56.785Z,16.90
2023-05-19T22:07:40.084Z,16.90
2023-05-19T22:10:18.619Z,16.90
2023-05-19T22:13:33.261Z,16.90
2023-05-19T22:16:13.679Z,16.80
2023-05-19T22:18:58.272Z,16.80
2023-05-19T22:22:09.836Z,16.80
2023-05-19T22:27:47.919Z,16.80
2023-05-19T22:30:55.958Z,16.70
2023-05-19T22:34:04.941Z,16.70
2023-05-19T22:36:53.793Z,16.70
2023-05-19T22:42:30.712Z,16.60
2023-05-19T22:48:36.383Z,16.50
2023-05-19T22:51:28.349Z,16.50
2023-05-19T22:54:15.435Z,16.50
2023-05-19T22:57:18.437Z,16.40
2023-05-19T23:03:04.665Z,16.40
2023-05-19T23:12:20.340Z,16.20
2023-05-19T23:14:54.464Z,16.20
2023-05-19T23:20:32.694Z,16.10
2023-05-19T23:23:12.553Z,16.10
2023-05-19T23:25:50.337Z,16.10
2023-05-19T23:29:08.702Z,16.00
2023-05-19T23:31:59.208Z,16.00
2023-05-19T23:34:41.487Z,15.90
2023-05-19T23:37:46.057Z,15.90
2023-05-19T23:40:56.140Z,15.90
2023-05-19T23:43:50.670Z,15.80
2023-05-19T23:46:28.234Z,15.80
2023-05-19T23:49:16.542Z,15.80
2023-05-19T23:52:18.453Z,15.70
2023-05-19T23:57:47.297Z,15.70
